Time;durP1;ratioP1;P1;durP2;ratioP2;P2;SDS_P1;SDS_P2;PMS_P1;PMS_P2;Temp;Humidity;BMP_temperature;BMP_pressure;BME280_temperature;BME280_humidity;BME280_pressure;Samples;Min_cycle;Max_cycle;Signal;HPM_P1;HPM_P2
2022/12/21 00:02:26;;;;;;;30.63;17.97;;;6.10;99.90;;;;;;5040243;28;20456;-68
2022/12/21 00:04:54;;;;;;;30.07;17.70;;;6.10;99.90;;;;;;5039706;28;20462;-68
2022/12/21 00:07:21;;;;;;;30.37;18.77;;;6.10;99.90;;;;;;5039335;28;20456;-69
2022/12/21 00:09:48;;;;;;;29.50;19.33;;;6.00;99.90;;;;;;5039351;28;20455;-68
2022/12/21 00:12:15;;;;;;;29.03;17.80;;;6.00;99.90;;;;;;5039807;28;20559;-69
2022/12/21 00:14:42;;;;;;;29.30;18.50;;;6.00;99.90;;;;;;5039017;28;20464;-69
2022/12/21 00:17:09;;;;;;;32.20;19.20;;;6.00;99.90;;;;;;5040441;28;20952;-69
2022/12/21 00:19:36;;;;;;;27.77;18.03;;;6.00;99.90;;;;;;5041994;28;20523;-68
2022/12/21 00:22:04;;;;;;;30.30;18.10;;;6.00;99.90;;;;;;5042375;28;20848;-68
2022/12/21 00:24:32;;;;;;;29.73;18.63;;;6.00;99.90;;;;;;5041296;28;20876;-68
2022/12/21 00:26:59;;;;;;;31.07;18.73;;;6.00;99.90;;;;;;5041208;28;20838;-68
2022/12/21 00:29:25;;;;;;;32.43;17.70;;;6.00;99.90;;;;;;5040081;28;20932;-68
2022/12/21 00:31:53;;;;;;;29.27;18.20;;;6.00;99.90;;;;;;5041861;28;20484;-67
2022/12/21 00:34:21;;;;;;;32.10;19.40;;;6.00;99.90;;;;;;5040936;28;20527;-68
2022/12/21 00:36:50;;;;;;;32.80;20.13;;;6.00;99.90;;;;;;5039360;28;20456;-68
2022/12/21 00:39:18;;;;;;;31.70;17.97;;;5.90;99.90;;;;;;5037883;28;20466;-68
2022/12/21 00:41:45;;;;;;;40.73;20.60;;;5.90;99.90;;;;;;5039504;28;20456;-68
2022/12/21 00:44:12;;;;;;;29.87;19.60;;;5.90;99.90;;;;;;5039369;28;20523;-68
2022/12/21 00:46:39;;;;;;;30.47;19.07;;;5.90;99.90;;;;;;5038501;28;20579;-68
2022/12/21 00:49:07;;;;;;;37.33;19.73;;;5.90;99.90;;;;;;5038514;28;20474;-68
2022/12/21 00:51:35;;;;;;;38.07;19.67;;;5.90;99.90;;;;;;5038819;28;20807;-68
2022/12/21 00:54:02;;;;;;;32.87;19.70;;;5.90;99.90;;;;;;5038243;28;20456;-69
2022/12/21 00:56:31;;;;;;;37.23;20.97;;;5.90;99.90;;;;;;5037842;28;20455;-67
2022/12/21 00:58:58;;;;;;;34.13;19.17;;;5.90;99.90;;;;;;5038463;28;20583;-69
2022/12/21 01:01:27;;;;;;;31.40;19.63;;;5.90;99.90;;;;;;5038337;28;20851;-67
2022/12/21 01:03:56;;;;;;;32.90;20.20;;;5.90;99.90;;;;;;5039283;28;20456;-68
2022/12/21 01:06:26;;;;;;;34.37;20.50;;;5.90;99.90;;;;;;5037582;28;20470;-68
2022/12/21 01:08:54;;;;;;;35.57;20.50;;;5.90;99.90;;;;;;5037852;28;20456;-67
2022/12/21 01:11:22;;;;;;;33.13;19.70;;;5.90;99.90;;;;;;5038273;28;20480;-68
2022/12/21 01:13:50;;;;;;;33.43;19.13;;;6.00;99.90;;;;;;5038160;28;20807;-68
2022/12/21 01:16:19;;;;;;;34.57;18.97;;;6.00;99.90;;;;;;5038540;28;20456;-68
2022/12/21 01:18:46;;;;;;;33.00;20.23;;;6.00;99.90;;;;;;5039024;28;20456;-68
2022/12/21 01:21:16;;;;;;;38.60;21.10;;;6.00;99.90;;;;;;5038155;28;20789;-69
2022/12/21 01:23:43;;;;;;;33.33;19.53;;;6.00;99.90;;;;;;5037993;28;20456;-68
2022/12/21 01:26:10;;;;;;;35.67;19.37;;;6.00;99.90;;;;;;5038054;28;20857;-68
2022/12/21 01:28:37;;;;;;;32.63;18.83;;;6.00;99.90;;;;;;5038545;28;20783;-69
2022/12/21 01:31:05;;;;;;;29.67;17.87;;;6.00;99.90;;;;;;5038168;28;20494;-68
2022/12/21 01:33:32;;;;;;;35.93;19.90;;;6.00;99.90;;;;;;5038781;28;20558;-67
2022/12/21 01:36:04;;;;;;;27.63;17.90;;;6.00;99.90;;;;;;5038719;28;20524;-67
2022/12/21 01:38:31;;;;;;;32.33;19.23;;;6.00;99.90;;;;;;5038057;28;20510;-68
2022/12/21 01:40:58;;;;;;;30.90;19.30;;;6.00;99.90;;;;;;5038470;28;20463;-68
2022/12/21 01:43:44;;;;;;;37.10;19.77;;;6.00;99.90;;;;;;5039141;28;20527;-69
2022/12/21 01:46:17;;;;;;;35.13;19.53;;;6.10;99.90;;;;;;5040190;28;20487;-67
2022/12/21 01:48:49;;;;;;;30.60;19.60;;;6.00;99.90;;;;;;5043576;28;20444;-68
2022/12/21 01:51:17;;;;;;;30.80;18.30;;;6.00;99.90;;;;;;5043228;28;20475;-68
2022/12/21 01:53:48;;;;;;;30.63;19.40;;;6.00;99.90;;;;;;5043627;28;20542;-68
2022/12/21 01:56:20;;;;;;;31.30;19.10;;;6.00;99.90;;;;;;5045774;28;20455;-68
2022/12/21 01:58:47;;;;;;;31.23;18.77;;;6.00;99.90;;;;;;5044903;28;20502;-68
2022/12/21 02:01:16;;;;;;;39.40;20.33;;;6.00;99.90;;;;;;5043249;28;20447;-68
2022/12/21 02:03:47;;;;;;;34.70;20.80;;;6.00;99.90;;;;;;5042547;28;20470;-68
2022/12/21 02:06:19;;;;;;;33.60;20.00;;;6.00;99.90;;;;;;5042282;28;20845;-68
2022/12/21 02:08:47;;;;;;;33.07;20.00;;;5.90;99.90;;;;;;5041922;28;20527;-68
2022/12/21 02:11:15;;;;;;;36.13;19.83;;;5.90;99.90;;;;;;5041816;28;20479;-69
2022/12/21 02:13:42;;;;;;;31.40;18.83;;;5.90;99.90;;;;;;5041293;28;20456;-68
2022/12/21 02:16:20;;;;;;;32.00;20.40;;;5.90;99.90;;;;;;5041300;28;20460;-68
2022/12/21 02:19:14;;;;;;;35.20;18.90;;;5.90;99.90;;;;;;5039377;28;20905;-68
2022/12/21 02:21:45;;;;;;;33.53;18.70;;;5.90;99.90;;;;;;5041725;28;20538;-68
2022/12/21 02:24:45;;;;;;;35.47;18.93;;;5.90;99.90;;;;;;5041412;28;20920;-69
2022/12/21 02:27:36;;;;;;;31.70;19.13;;;5.90;99.90;;;;;;5038421;28;20534;-68
2022/12/21 02:30:14;;;;;;;32.93;20.37;;;5.90;99.90;;;;;;5041699;28;20440;-69
2022/12/21 02:33:00;;;;;;;34.67;21.70;;;5.80;99.90;;;;;;5039847;28;20498;-68
2022/12/21 02:35:39;;;;;;;34.67;21.50;;;5.80;99.90;;;;;;5040017;28;20460;-68
2022/12/21 02:38:22;;;;;;;36.83;20.93;;;5.80;99.90;;;;;;5040834;28;20455;-69
2022/12/21 02:41:00;;;;;;;34.83;21.20;;;5.80;99.90;;;;;;5041299;28;20783;-68
2022/12/21 02:46:27;;;;;;;35.87;20.57;;;5.70;99.90;;;;;;5040236;28;20506;-68
2022/12/21 02:49:00;;;;;;;40.33;22.83;;;5.70;99.90;;;;;;5040168;28;20516;-68
2022/12/21 02:51:33;;;;;;;40.83;21.60;;;5.70;99.90;;;;;;5042651;28;20796;-69
2022/12/21 02:54:02;;;;;;;41.10;22.03;;;5.70;99.90;;;;;;5042926;28;20433;-68
2022/12/21 02:56:29;;;;;;;35.60;21.17;;;5.70;99.90;;;;;;5043765;28;20470;-68
2022/12/21 02:58:56;;;;;;;39.53;21.57;;;5.70;99.90;;;;;;5041789;28;20979;-68
2022/12/21 03:01:42;;;;;;;38.13;20.77;;;5.70;99.90;;;;;;5040075;28;20462;-68
2022/12/21 03:04:50;;;;;;;34.60;21.70;;;5.70;99.90;;;;;;5042486;28;20881;-67
2022/12/21 03:07:32;;;;;;;40.00;20.70;;;5.80;99.90;;;;;;4984907;28;20503;-68
2022/12/21 03:10:05;;;;;;;40.70;21.80;;;5.70;99.90;;;;;;5041430;28;20428;-69
2022/12/21 03:12:42;;;;;;;43.53;22.63;;;5.70;99.90;;;;;;5041839;28;20559;-68
2022/12/21 03:15:19;;;;;;;39.63;22.50;;;5.70;99.90;;;;;;5041863;28;20444;-68
2022/12/21 03:17:54;;;;;;;39.50;21.27;;;5.70;99.90;;;;;;5041761;28;20454;-69
2022/12/21 03:20:26;;;;;;;38.83;21.60;;;5.70;99.90;;;;;;5041576;28;20439;-68
2022/12/21 03:22:57;;;;;;;40.60;21.37;;;5.70;99.90;;;;;;5040931;28;20447;-67
2022/12/21 03:25:29;;;;;;;35.37;21.07;;;5.70;99.90;;;;;;5041567;28;20436;-67
2022/12/21 03:28:01;;;;;;;46.97;23.27;;;5.70;99.90;;;;;;5041421;28;20454;-67
2022/12/21 03:30:31;;;;;;;41.37;23.97;;;5.70;99.90;;;;;;5041886;28;20848;-69
2022/12/21 03:33:02;;;;;;;45.77;23.80;;;5.70;99.90;;;;;;5041721;28;20574;-69
2022/12/21 03:35:35;;;;;;;41.17;23.13;;;5.70;99.90;;;;;;5041235;28;20820;-68
2022/12/21 03:38:07;;;;;;;40.93;22.60;;;5.70;99.90;;;;;;5040564;28;20444;-69
2022/12/21 03:40:37;;;;;;;36.90;22.90;;;5.70;99.90;;;;;;5040513;28;20531;-68
2022/12/21 03:43:11;;;;;;;39.60;23.27;;;5.70;99.90;;;;;;5040800;28;20851;-68
2022/12/21 03:45:45;;;;;;;38.93;22.90;;;5.70;99.90;;;;;;5040228;28;20510;-69
2022/12/21 03:48:17;;;;;;;44.70;24.10;;;5.70;99.90;;;;;;5039841;28;20440;-68
2022/12/21 03:50:48;;;;;;;47.53;23.37;;;5.60;99.90;;;;;;5040168;28;20474;-68
2022/12/21 03:53:24;;;;;;;44.53;23.23;;;5.70;99.90;;;;;;5040130;28;20535;-68
2022/12/21 03:55:52;;;;;;;44.23;23.63;;;5.70;99.90;;;;;;5040499;28;20440;-68
2022/12/21 03:58:19;;;;;;;41.90;24.00;;;5.70;99.90;;;;;;5040896;28;20933;-69
2022/12/21 04:01:01;;;;;;;40.70;24.40;;;5.70;99.90;;;;;;5041168;28;20456;-68
2022/12/21 04:03:34;;;;;;;43.63;22.87;;;5.80;99.90;;;;;;5040940;28;20440;-69
2022/12/21 04:06:06;;;;;;;37.87;23.17;;;5.80;99.90;;;;;;5040619;28;20482;-68
2022/12/21 04:08:33;;;;;;;40.40;22.73;;;5.80;99.90;;;;;;5039972;28;20440;-68
2022/12/21 04:11:00;;;;;;;36.40;22.80;;;5.80;99.90;;;;;;5039968;28;20464;-69
2022/12/21 04:13:26;;;;;;;38.40;22.00;;;5.80;99.90;;;;;;5039685;28;20753;-68
2022/12/21 04:16:04;;;;;;;44.00;22.50;;;5.70;99.90;;;;;;5040065;28;20523;-69
2022/12/21 04:21:18;;;;;;;38.63;21.77;;;5.80;99.90;;;;;;5040039;28;20427;-67
2022/12/21 04:29:13;;;;;;;45.27;23.00;;;5.80;99.90;;;;;;5040951;28;20436;-68
2022/12/21 04:31:40;;;;;;;37.73;23.53;;;5.90;99.90;;;;;;5040970;28;20483;-69
2022/12/21 04:34:07;;;;;;;44.97;22.70;;;5.90;99.90;;;;;;5041660;28;20463;-68
2022/12/21 04:39:18;;;;;;;37.17;21.50;;;5.90;99.90;;;;;;5019543;28;20452;-68
2022/12/21 04:41:45;;;;;;;41.20;22.00;;;5.90;99.90;;;;;;5039483;28;20852;-69
2022/12/21 04:44:12;;;;;;;41.60;22.90;;;5.90;99.90;;;;;;5039782;28;20459;-68
2022/12/21 04:46:39;;;;;;;44.87;24.27;;;5.90;99.90;;;;;;5038980;28;20570;-69
2022/12/21 04:49:06;;;;;;;47.90;22.40;;;6.00;99.90;;;;;;5038856;28;20554;-68
2022/12/21 04:51:33;;;;;;;38.50;22.40;;;5.90;99.90;;;;;;5038547;28;20476;-68
2022/12/21 04:54:02;;;;;;;45.23;25.37;;;5.90;99.90;;;;;;5039216;28;20460;-68
2022/12/21 04:56:29;;;;;;;42.93;23.53;;;6.00;99.90;;;;;;5038944;28;20531;-69
2022/12/21 04:58:56;;;;;;;41.27;23.47;;;6.00;99.90;;;;;;5039317;28;20943;-69
2022/12/21 05:01:23;;;;;;;44.43;24.53;;;6.00;99.90;;;;;;5039087;28;20912;-68
2022/12/21 05:03:51;;;;;;;39.97;22.50;;;6.00;99.90;;;;;;5039180;28;20464;-68
2022/12/21 05:06:19;;;;;;;37.80;24.20;;;6.00;99.90;;;;;;5038759;28;20856;-67
2022/12/21 05:08:46;;;;;;;43.27;23.70;;;6.00;99.90;;;;;;5038500;28;20456;-68
2022/12/21 05:11:17;;;;;;;45.37;24.10;;;6.10;99.90;;;;;;5038492;28;20455;-69
2022/12/21 05:13:44;;;;;;;47.03;24.10;;;6.10;99.90;;;;;;5038298;28;20450;-68
2022/12/21 05:16:16;;;;;;;39.10;23.00;;;6.10;99.90;;;;;;5039476;28;20456;-67
2022/12/21 05:18:44;;;;;;;41.07;24.97;;;6.10;99.90;;;;;;5038745;28;20450;-69
2022/12/21 05:21:11;;;;;;;41.57;22.37;;;6.10;99.90;;;;;;5038242;28;20870;-67
2022/12/21 05:23:38;;;;;;;41.20;23.63;;;6.20;99.90;;;;;;5038440;28;20460;-68
2022/12/21 05:26:07;;;;;;;45.10;24.47;;;6.20;99.90;;;;;;5037794;28;20784;-68
2022/12/21 05:28:35;;;;;;;50.73;26.03;;;6.20;99.90;;;;;;5038442;28;20851;-69
2022/12/21 05:31:03;;;;;;;44.83;23.60;;;6.20;99.90;;;;;;5038726;28;20519;-69
2022/12/21 05:33:30;;;;;;;45.47;23.50;;;6.20;99.90;;;;;;5038183;28;20939;-68
2022/12/21 05:35:57;;;;;;;36.10;22.60;;;6.20;99.90;;;;;;5038069;28;20466;-69
2022/12/21 05:38:25;;;;;;;48.57;25.57;;;6.20;99.90;;;;;;5038246;28;20928;-68
2022/12/21 05:40:52;;;;;;;44.73;24.37;;;6.10;99.90;;;;;;5039425;28;20460;-68
2022/12/21 05:43:19;;;;;;;44.17;24.87;;;6.10;99.90;;;;;;5038980;28;20463;-67
2022/12/21 05:45:48;;;;;;;49.53;26.70;;;6.10;99.90;;;;;;5037763;28;20484;-69
2022/12/21 05:48:15;;;;;;;47.47;25.30;;;6.20;99.90;;;;;;5037823;28;20467;-69
2022/12/21 05:50:42;;;;;;;40.80;25.63;;;6.20;99.90;;;;;;5038250;28;20863;-68
2022/12/21 05:53:10;;;;;;;43.77;25.40;;;6.20;99.90;;;;;;5038528;28;20479;-68
2022/12/21 05:55:37;;;;;;;54.17;28.40;;;6.30;99.90;;;;;;5038720;28;20542;-68
2022/12/21 05:58:04;;;;;;;49.03;24.53;;;6.30;99.90;;;;;;5039152;28;20851;-68
2022/12/21 06:00:31;;;;;;;40.13;25.30;;;6.30;99.90;;;;;;5038544;28;20548;-69
2022/12/21 06:02:59;;;;;;;45.20;25.87;;;6.40;99.90;;;;;;5038236;28;20494;-68
2022/12/21 06:05:27;;;;;;;48.67;24.47;;;6.40;99.90;;;;;;5037517;28;20502;-69
2022/12/21 06:07:54;;;;;;;52.07;25.67;;;6.40;99.90;;;;;;5037476;28;20463;-69
2022/12/21 06:10:20;;;;;;;40.77;25.37;;;6.40;99.90;;;;;;5037268;28;20456;-68
2022/12/21 06:12:47;;;;;;;42.20;24.20;;;6.40;99.90;;;;;;5037756;28;20587;-67
2022/12/21 06:15:14;;;;;;;44.43;24.90;;;6.40;99.90;;;;;;5038782;28;20517;-67
2022/12/21 06:17:41;;;;;;;45.10;24.40;;;6.40;99.90;;;;;;5039419;28;20456;-69
2022/12/21 06:20:10;;;;;;;45.23;24.90;;;6.50;99.90;;;;;;5039320;28;20546;-68
2022/12/21 06:22:37;;;;;;;45.97;25.03;;;6.50;99.90;;;;;;5040079;28;20451;-69
2022/12/21 06:25:04;;;;;;;44.07;24.30;;;6.50;99.90;;;;;;5039127;28;20527;-69
2022/12/21 06:27:31;;;;;;;42.10;23.73;;;6.50;99.90;;;;;;5039632;28;20498;-69
2022/12/21 06:29:58;;;;;;;46.63;25.77;;;6.60;99.90;;;;;;5039984;28;20547;-69
2022/12/21 06:32:25;;;;;;;45.20;24.80;;;6.60;99.90;;;;;;5041232;28;20483;-69
2022/12/21 06:34:51;;;;;;;47.00;26.70;;;6.60;99.90;;;;;;5041051;28;20964;-69
2022/12/21 06:37:20;;;;;;;42.77;24.50;;;6.60;99.90;;;;;;5042070;28;20459;-69
2022/12/21 06:39:46;;;;;;;45.53;26.60;;;6.60;99.90;;;;;;5044912;28;20484;-69
2022/12/21 06:42:15;;;;;;;44.27;26.00;;;6.60;99.90;;;;;;5043591;28;20515;-68
2022/12/21 06:44:42;;;;;;;44.57;24.93;;;6.70;99.90;;;;;;5045186;28;20531;-69
2022/12/21 06:47:08;;;;;;;47.47;25.33;;;6.70;99.90;;;;;;5043683;28;20960;-69
2022/12/21 06:49:35;;;;;;;42.27;25.93;;;6.70;99.90;;;;;;5043725;28;20551;-68
2022/12/21 06:52:02;;;;;;;39.87;24.70;;;6.70;99.90;;;;;;5044594;28;20475;-68
2022/12/21 06:54:31;;;;;;;48.17;24.87;;;6.70;99.90;;;;;;5044243;28;20456;-69
2022/12/21 06:56:57;;;;;;;49.70;27.83;;;6.70;99.90;;;;;;5044631;28;20459;-68
2022/12/21 06:59:24;;;;;;;42.23;25.67;;;6.70;99.90;;;;;;5043040;28;20460;-69
2022/12/21 07:01:51;;;;;;;46.77;25.80;;;6.70;99.90;;;;;;5043705;28;20528;-68
2022/12/21 07:04:18;;;;;;;39.63;24.50;;;6.80;99.90;;;;;;5043185;28;20547;-68
2022/12/21 07:06:45;;;;;;;48.47;26.33;;;6.80;99.90;;;;;;5043055;28;20518;-67
2022/12/21 07:09:12;;;;;;;52.37;27.40;;;6.70;99.90;;;;;;5043967;28;20456;-69
2022/12/21 07:11:40;;;;;;;44.83;26.97;;;6.70;99.90;;;;;;5044541;28;20463;-69
2022/12/21 07:14:07;;;;;;;48.30;27.97;;;6.80;99.90;;;;;;5044798;28;20452;-68
2022/12/21 07:16:34;;;;;;;45.57;25.23;;;6.80;99.90;;;;;;5043708;28;20455;-69
2022/12/21 07:19:01;;;;;;;43.67;26.47;;;6.80;99.90;;;;;;5043671;28;20464;-69
2022/12/21 07:21:28;;;;;;;49.87;27.03;;;6.80;99.90;;;;;;5043771;28;20558;-69
2022/12/21 07:23:55;;;;;;;49.40;25.90;;;6.80;99.90;;;;;;5043373;28;20456;-69
2022/12/21 07:26:24;;;;;;;42.53;25.23;;;6.80;99.90;;;;;;5043121;28;20473;-69
2022/12/21 07:28:54;;;;;;;46.40;27.80;;;6.80;99.90;;;;;;5043336;28;20498;-69
2022/12/21 07:31:23;;;;;;;47.13;26.90;;;6.80;99.90;;;;;;5043510;28;20454;-69
2022/12/21 07:33:50;;;;;;;44.03;26.00;;;6.90;99.90;;;;;;5043379;28;20506;-69
2022/12/21 07:36:18;;;;;;;44.70;27.07;;;6.90;99.90;;;;;;5042804;28;20538;-69
2022/12/21 07:38:45;;;;;;;53.10;27.90;;;6.90;99.90;;;;;;5043144;28;20482;-69
2022/12/21 07:41:13;;;;;;;42.60;26.60;;;6.90;99.90;;;;;;5042113;28;20547;-68
2022/12/21 07:43:40;;;;;;;50.40;29.40;;;7.00;99.90;;;;;;5042353;28;20467;-68
2022/12/21 07:46:09;;;;;;;54.00;28.43;;;7.00;99.90;;;;;;5041935;28;20494;-67
2022/12/21 07:48:36;;;;;;;39.63;26.00;;;7.00;99.90;;;;;;5041762;28;20466;-69
2022/12/21 07:51:04;;;;;;;47.20;27.73;;;7.00;99.90;;;;;;5041432;28;20464;-69
2022/12/21 07:53:31;;;;;;;43.50;27.10;;;7.10;99.90;;;;;;5041830;28;20480;-68
2022/12/21 07:56:02;;;;;;;41.27;25.90;;;7.10;99.90;;;;;;5041360;28;20502;-67
2022/12/21 07:58:29;;;;;;;40.77;25.20;;;7.10;99.90;;;;;;5042032;28;20555;-69
2022/12/21 08:01:02;;;;;;;49.70;27.40;;;7.10;99.90;;;;;;5041780;28;20467;-69
2022/12/21 08:03:31;;;;;;;43.53;27.17;;;7.20;99.90;;;;;;5041133;28;20440;-70
2022/12/21 08:05:57;;;;;;;40.97;25.50;;;7.20;99.90;;;;;;5041394;28;20452;-69
2022/12/21 08:08:24;;;;;;;39.80;26.23;;;7.20;99.90;;;;;;5040866;28;20456;-68
2022/12/21 08:10:51;;;;;;;39.00;23.67;;;7.20;99.90;;;;;;5040103;28;20457;-69
2022/12/21 08:13:18;;;;;;;36.90;24.70;;;7.30;99.90;;;;;;5042928;28;20476;-68
2022/12/21 08:15:45;;;;;;;37.87;24.57;;;7.20;99.90;;;;;;5043056;28;20466;-69
2022/12/21 08:18:11;;;;;;;42.67;26.53;;;7.30;99.90;;;;;;5043349;28;20478;-69
2022/12/21 08:20:43;;;;;;;41.63;25.87;;;7.30;99.90;;;;;;5043380;28;20577;-69
2022/12/21 08:23:09;;;;;;;42.50;24.80;;;7.30;99.90;;;;;;5044515;28;20450;-68
2022/12/21 08:25:36;;;;;;;36.70;23.73;;;7.30;99.90;;;;;;5041976;28;20471;-68
2022/12/21 08:28:03;;;;;;;40.87;24.37;;;7.30;99.90;;;;;;5041312;28;20495;-69
2022/12/21 08:30:30;;;;;;;40.23;24.27;;;7.40;99.90;;;;;;5041431;28;20460;-69
2022/12/21 08:32:57;;;;;;;38.27;24.87;;;7.40;99.90;;;;;;5043210;28;20858;-69
2022/12/21 08:35:23;;;;;;;38.20;24.20;;;7.40;99.90;;;;;;5043195;28;20547;-69
2022/12/21 08:37:54;;;;;;;34.33;23.67;;;7.40;99.90;;;;;;5043195;28;20483;-68
2022/12/21 08:40:21;;;;;;;46.60;25.37;;;7.50;99.90;;;;;;5042656;28;20780;-69
2022/12/21 08:42:48;;;;;;;36.43;23.97;;;7.50;99.90;;;;;;5041367;28;20510;-68
2022/12/21 08:45:16;;;;;;;37.87;23.93;;;7.50;99.90;;;;;;5041574;28;20538;-69
2022/12/21 08:47:43;;;;;;;39.83;24.03;;;7.50;99.90;;;;;;5041760;28;20441;-69
2022/12/21 08:50:10;;;;;;;39.60;24.63;;;7.50;99.90;;;;;;5042390;28;20491;-69
2022/12/21 08:52:37;;;;;;;39.20;24.53;;;7.50;99.90;;;;;;5042743;28;20476;-69
2022/12/21 08:55:06;;;;;;;37.27;24.47;;;7.50;99.90;;;;;;5042429;28;20651;-68
2022/12/21 08:57:32;;;;;;;34.87;24.30;;;7.50;99.90;;;;;;5042080;28;20466;-69
2022/12/21 08:59:59;;;;;;;39.03;25.63;;;7.50;99.90;;;;;;5040191;28;20495;-68
2022/12/21 09:02:26;;;;;;;37.07;24.50;;;7.50;99.90;;;;;;5041400;28;20515;-70
2022/12/21 09:04:53;;;;;;;45.23;25.27;;;7.50;99.90;;;;;;5040146;28;20768;-68
2022/12/21 09:07:20;;;;;;;39.97;24.03;;;7.60;99.90;;;;;;5039478;28;20456;-69
2022/12/21 09:09:46;;;;;;;35.60;23.53;;;7.60;99.90;;;;;;5039438;28;20487;-67
2022/12/21 09:12:15;;;;;;;35.27;23.03;;;7.60;99.90;;;;;;5039580;28;20462;-69
2022/12/21 09:14:42;;;;;;;38.27;25.40;;;7.60;99.90;;;;;;5040765;28;20494;-69
2022/12/21 09:17:08;;;;;;;40.67;22.70;;;7.60;99.90;;;;;;5041871;28;20771;-69
2022/12/21 09:19:35;;;;;;;40.83;25.60;;;7.60;99.90;;;;;;5041362;28;20460;-69
2022/12/21 09:22:02;;;;;;;37.10;23.50;;;7.60;99.90;;;;;;5041307;28;20595;-69
2022/12/21 09:24:29;;;;;;;32.87;22.47;;;7.60;99.90;;;;;;5041396;28;20520;-69
2022/12/21 09:26:56;;;;;;;31.67;22.17;;;7.70;99.90;;;;;;5040454;28;20466;-69
2022/12/21 09:29:24;;;;;;;36.33;23.70;;;7.70;99.90;;;;;;5040918;28;20523;-69
2022/12/21 09:31:51;;;;;;;40.80;24.20;;;7.70;99.90;;;;;;5042379;28;20487;-67
2022/12/21 09:34:19;;;;;;;38.90;22.03;;;7.80;99.90;;;;;;5041682;28;20475;-69
2022/12/21 09:36:46;;;;;;;30.33;22.23;;;7.80;99.90;;;;;;5043237;28;20535;-68
2022/12/21 09:39:13;;;;;;;41.23;23.03;;;7.80;99.90;;;;;;5041671;28;20456;-68
2022/12/21 09:41:52;;;;;;;42.43;23.03;;;7.90;99.90;;;;;;5042180;28;20805;-68
2022/12/21 09:44:37;;;;;;;36.57;23.23;;;7.80;99.90;;;;;;5041668;28;20441;-68
2022/12/21 09:47:07;;;;;;;35.47;21.50;;;7.90;99.90;;;;;;5043123;28;20483;-68
2022/12/21 09:49:40;;;;;;;36.67;23.40;;;7.90;99.90;;;;;;5043150;28;20535;-70
2022/12/21 09:52:15;;;;;;;34.67;22.00;;;7.80;99.90;;;;;;5043612;28;20515;-69
2022/12/21 09:54:46;;;;;;;34.30;22.30;;;7.90;99.90;;;;;;5042328;28;20482;-68
2022/12/21 09:57:14;;;;;;;36.77;22.73;;;7.90;99.90;;;;;;5041590;28;20440;-69
2022/12/21 09:59:43;;;;;;;36.43;22.20;;;7.90;99.90;;;;;;5041934;28;20949;-69
2022/12/21 10:02:23;;;;;;;33.80;22.50;;;7.90;99.90;;;;;;5041848;28;20466;-70
2022/12/21 10:05:06;;;;;;;36.87;22.00;;;8.00;99.90;;;;;;5042371;28;20432;-69
2022/12/21 10:08:09;;;;;;;31.13;21.57;;;8.00;99.90;;;;;;5039220;28;20498;-68
2022/12/21 10:10:39;;;;;;;30.97;21.30;;;8.00;99.90;;;;;;5038052;28;20964;-69
2022/12/21 10:13:20;;;;;;;27.20;21.00;;;8.00;99.90;;;;;;5039242;28;20494;-68
2022/12/21 10:16:00;;;;;;;34.50;23.63;;;8.00;99.90;;;;;;5038967;28;20450;-67
2022/12/21 10:18:34;;;;;;;31.13;21.80;;;8.00;99.90;;;;;;5039065;28;20444;-68
2022/12/21 10:21:10;;;;;;;33.23;22.33;;;8.00;99.90;;;;;;5038727;28;20532;-69
2022/12/21 10:23:44;;;;;;;32.10;21.40;;;8.00;99.90;;;;;;5039434;28;20527;-68
2022/12/21 10:26:15;;;;;;;33.13;20.93;;;8.00;99.90;;;;;;5039318;28;20440;-68
2022/12/21 10:28:48;;;;;;;32.50;21.70;;;8.10;99.90;;;;;;5039371;28;20455;-68
2022/12/21 10:31:24;;;;;;;28.43;20.83;;;8.10;99.90;;;;;;5039616;28;20440;-68
2022/12/21 10:33:52;;;;;;;28.33;20.67;;;8.20;99.90;;;;;;5040011;28;20533;-69
2022/12/21 10:36:22;;;;;;;31.80;20.47;;;8.20;99.90;;;;;;5039520;28;20524;-69
2022/12/21 10:38:49;;;;;;;32.80;22.63;;;8.20;99.90;;;;;;5040342;28;20456;-68
2022/12/21 10:41:22;;;;;;;32.80;22.47;;;8.20;99.90;;;;;;5040432;28;20494;-69
2022/12/21 10:43:53;;;;;;;31.83;21.87;;;8.20;99.90;;;;;;5040269;28;20762;-69
2022/12/21 10:46:26;;;;;;;31.70;20.17;;;8.20;99.90;;;;;;5040927;28;20476;-67
2022/12/21 10:49:00;;;;;;;27.50;20.87;;;8.30;99.90;;;;;;5043407;28;20437;-69
2022/12/21 10:51:29;;;;;;;30.23;20.40;;;8.30;99.90;;;;;;5043950;28;20463;-68
2022/12/21 10:53:59;;;;;;;31.50;20.83;;;8.40;99.90;;;;;;5044353;28;20476;-69
2022/12/21 10:56:27;;;;;;;28.07;20.17;;;8.40;99.90;;;;;;5043485;28;20462;-68
2022/12/21 10:58:55;;;;;;;28.70;21.00;;;8.40;99.90;;;;;;5050019;28;20532;-68
2022/12/21 11:01:27;;;;;;;30.97;20.97;;;8.40;99.90;;;;;;5060268;28;20455;-68
2022/12/21 11:04:08;;;;;;;30.07;20.77;;;8.40;99.90;;;;;;5060963;28;20462;-69
2022/12/21 11:06:35;;;;;;;28.90;20.10;;;8.50;99.90;;;;;;5059778;28;20880;-70
2022/12/21 11:09:02;;;;;;;34.07;21.30;;;8.50;99.90;;;;;;5060649;28;20455;-68
2022/12/21 11:11:32;;;;;;;26.87;19.43;;;8.50;99.90;;;;;;5060335;28;20461;-69
2022/12/21 11:14:00;;;;;;;25.37;18.63;;;8.50;99.90;;;;;;5060938;28;20532;-68
2022/12/21 11:16:31;;;;;;;29.30;19.50;;;8.50;99.90;;;;;;5061799;28;20456;-68
2022/12/21 11:19:01;;;;;;;27.27;21.03;;;8.50;99.90;;;;;;5062337;28;20442;-68
2022/12/21 11:21:37;;;;;;;26.87;20.70;;;8.50;99.90;;;;;;5060901;28;20453;-69
2022/12/21 11:24:10;;;;;;;30.40;20.23;;;8.50;99.90;;;;;;5061977;28;20760;-69
2022/12/21 11:26:44;;;;;;;27.10;19.07;;;8.50;99.90;;;;;;5065165;28;20546;-69
2022/12/21 11:29:21;;;;;;;29.77;20.70;;;8.60;99.90;;;;;;5063947;28;20443;-69
2022/12/21 11:31:50;;;;;;;28.00;20.63;;;8.60;99.90;;;;;;5063660;28;20438;-69
2022/12/21 11:34:32;;;;;;;25.90;19.50;;;8.60;99.90;;;;;;5063091;28;21044;-69
2022/12/21 11:37:02;;;;;;;30.07;20.37;;;8.60;99.90;;;;;;5063285;28;20439;-68
2022/12/21 11:39:30;;;;;;;28.70;20.50;;;8.60;99.90;;;;;;5063112;28;20451;-69
2022/12/21 11:41:57;;;;;;;25.87;19.90;;;8.60;99.90;;;;;;5054165;28;20539;-69
2022/12/21 11:44:26;;;;;;;26.90;19.97;;;8.60;99.90;;;;;;5044978;28;20451;-69
2022/12/21 11:47:09;;;;;;;30.07;20.47;;;8.60;99.90;;;;;;5043574;28;20547;-68
2022/12/21 11:50:08;;;;;;;30.97;19.97;;;8.60;99.90;;;;;;5043321;28;20450;-69
2022/12/21 11:52:52;;;;;;;28.73;20.20;;;8.60;99.90;;;;;;5043894;28;20450;-69
2022/12/21 11:55:27;;;;;;;29.97;20.43;;;8.70;99.90;;;;;;5042570;28;20815;-68
2022/12/21 11:58:03;;;;;;;34.70;22.00;;;8.70;99.90;;;;;;5043428;28;20490;-69
2022/12/21 12:00:37;;;;;;;31.70;20.63;;;8.70;99.90;;;;;;5043153;28;20532;-69
2022/12/21 12:03:41;;;;;;;29.60;20.60;;;8.70;99.90;;;;;;5044435;28;20452;-69
2022/12/21 12:06:23;;;;;;;27.43;19.83;;;8.70;99.90;;;;;;5010762;28;20456;-69
2022/12/21 12:09:04;;;;;;;28.60;20.40;;;8.70;99.90;;;;;;5044930;28;20571;-69
2022/12/21 12:11:44;;;;;;;26.97;19.87;;;8.80;99.90;;;;;;5042567;28;20455;-68
2022/12/21 12:14:36;;;;;;;26.17;19.60;;;8.70;99.90;;;;;;5041557;28;20464;-68
2022/12/21 12:17:12;;;;;;;26.37;20.00;;;8.70;99.90;;;;;;5042299;28;20535;-68
2022/12/21 12:19:48;;;;;;;29.00;19.57;;;8.80;99.90;;;;;;5042332;28;20797;-69
2022/12/21 12:22:40;;;;;;;27.60;21.00;;;8.70;99.90;;;;;;5041406;28;20443;-69
2022/12/21 12:25:44;;;;;;;27.70;19.20;;;8.70;99.90;;;;;;5042699;28;20440;-69
2022/12/21 12:28:30;;;;;;;28.60;21.00;;;8.70;99.90;;;;;;5042564;28;20441;-69
2022/12/21 12:31:14;;;;;;;28.27;19.93;;;8.70;99.90;;;;;;5041629;28;20777;-68
2022/12/21 12:33:56;;;;;;;29.63;21.60;;;8.70;99.90;;;;;;5041374;28;20468;-68
2022/12/21 12:36:34;;;;;;;23.53;18.73;;;8.70;99.90;;;;;;5041950;28;20467;-69
2022/12/21 12:39:10;;;;;;;27.73;20.50;;;8.70;99.90;;;;;;5042839;28;20531;-69
2022/12/21 12:41:43;;;;;;;30.70;20.23;;;8.70;99.90;;;;;;5041419;28;20444;-68
2022/12/21 12:44:17;;;;;;;29.10;21.80;;;8.70;99.90;;;;;;5041629;28;20446;-69
2022/12/21 12:46:57;;;;;;;27.30;19.60;;;8.70;99.90;;;;;;5041485;28;20775;-69
2022/12/21 12:49:46;;;;;;;29.70;21.00;;;8.70;99.90;;;;;;5043206;28;20539;-69
2022/12/21 12:52:28;;;;;;;28.53;20.63;;;8.70;99.90;;;;;;5043427;28;20582;-69
2022/12/21 12:55:02;;;;;;;34.07;21.07;;;8.70;99.90;;;;;;5042221;28;20551;-68
2022/12/21 12:57:35;;;;;;;29.40;20.93;;;8.70;99.90;;;;;;5042127;28;20538;-68
2022/12/21 13:00:08;;;;;;;30.27;21.97;;;8.70;99.90;;;;;;5040962;28;20816;-68
2022/12/21 13:02:43;;;;;;;29.30;21.20;;;8.70;99.90;;;;;;5040984;28;20444;-69
2022/12/21 13:05:32;;;;;;;31.73;22.40;;;8.70;99.90;;;;;;5041214;28;20740;-69
2022/12/21 13:08:12;;;;;;;30.20;22.57;;;8.70;99.90;;;;;;5041522;28;20456;-68
2022/12/21 13:10:50;;;;;;;31.30;20.60;;;8.70;99.90;;;;;;5040917;28;20444;-69